Terminal Aerodrome Forecast
Issued by NWS

Home | Current Version | Previous Version | Text Only | Print | Product List | Glossary On
Versions: 1 2 3 4 5 6 7 8 9 10 11 12 13 14 15 16 17 18 19 20 21
817
FTUS41 KCAR 250644 AAB
TAFBHB
TAF AMD
KBHB 250644Z 2507/2606 20004KT 1/2SM FG OVC002
     FM251100 17004KT 1SM -DZ BR OVC003
     FM260000 14009KT 1SM -RA BR OVC001 WS020/16040KT=

USA.gov is the U.S. government's official web portal to all federal, state and local government web resources and services.